createdAt,value
2018-08-12T00:02:52.747Z,100819.73
2018-08-12T00:05:50.821Z,100813.16
2018-08-12T00:08:49.655Z,100807.88
2018-08-12T00:11:47.531Z,100803.08
2018-08-12T00:14:44.764Z,100801.17
2018-08-12T00:17:42.610Z,100800.11
2018-08-12T00:20:39.712Z,100792.42
2018-08-12T00:23:37.451Z,100791.81
2018-08-12T00:26:34.821Z,100787.97
2018-08-12T00:29:32.688Z,100783.90
2018-08-12T00:32:30.692Z,100789.28
2018-08-12T00:35:28.830Z,100780.91
2018-08-12T00:38:25.918Z,100780.78
2018-08-12T00:41:23.139Z,100778.84
2018-08-12T00:44:20.453Z,100777.38
2018-08-12T00:47:18.066Z,100778.20
2018-08-12T00:50:15.946Z,100776.77
2018-08-12T00:53:13.844Z,100775.17
2018-08-12T00:56:11.715Z,100776.15
2018-08-12T00:59:09.171Z,100778.98
2018-08-12T01:02:06.615Z,100774.28
2018-08-12T01:05:03.675Z,100781.17
2018-08-12T01:08:01.689Z,100774.83
2018-08-12T01:10:58.987Z,100770.13
2018-08-12T01:13:56.895Z,100767.75
2018-08-12T01:16:54.715Z,100765.19
2018-08-12T01:19:52.212Z,100763.88
2018-08-12T01:22:50.128Z,100766.36
2018-08-12T01:25:48.048Z,100766.11
2018-08-12T01:28:45.932Z,100755.33
2018-08-12T01:31:43.796Z,100763.70
2018-08-12T01:34:41.671Z,100766.11
2018-08-12T01:37:39.686Z,100764.19
2018-08-12T01:40:37.703Z,100762.92
2018-08-12T01:43:34.886Z,100763.44
2018-08-12T01:46:32.932Z,100762.36
2018-08-12T01:49:30.994Z,100760.86
2018-08-12T01:52:28.920Z,100761.08
2018-08-12T01:55:27.771Z,100750.53
2018-08-12T01:58:25.796Z,100739.50
2018-08-12T02:01:23.630Z,100740.84
2018-08-12T02:04:21.397Z,100737.93
2018-08-12T02:07:18.292Z,100734.89
2018-08-12T02:10:16.275Z,100732.98
2018-08-12T02:13:13.403Z,100733.23
2018-08-12T02:16:10.298Z,100737.55
2018-08-12T02:19:07.284Z,100729.64
2018-08-12T02:22:04.481Z,100727.36
2018-08-12T02:25:02.507Z,100727.39
2018-08-12T02:27:59.896Z,100725.70
2018-08-12T02:30:57.983Z,100722.48
2018-08-12T02:33:56.013Z,100717.80
2018-08-12T02:36:53.917Z,100717.70
2018-08-12T02:39:50.926Z,100716.00
2018-08-12T02:42:48.948Z,100711.48
2018-08-12T02:45:46.979Z,100702.77
2018-08-12T02:48:45.272Z,100706.33
2018-08-12T02:51:42.559Z,100704.67
2018-08-12T02:54:40.525Z,100691.52
2018-08-12T02:57:38.457Z,100683.83
2018-08-12T03:00:36.480Z,100689.34
2018-08-12T03:03:34.200Z,100692.24
2018-08-12T03:06:31.471Z,100681.33
2018-08-12T03:09:31.392Z,100681.72
2018-08-12T03:12:28.887Z,100680.02
2018-08-12T03:15:27.794Z,100684.91
2018-08-12T03:18:25.025Z,100686.46
2018-08-12T03:21:23.077Z,100684.45
2018-08-12T03:24:20.304Z,100685.53
2018-08-12T03:27:17.719Z,100685.05
2018-08-12T03:30:16.068Z,100681.58
2018-08-12T03:33:13.992Z,100676.42
2018-08-12T03:36:11.231Z,100668.19
2018-08-12T03:39:09.381Z,100668.17
2018-08-12T03:42:07.268Z,100666.62
2018-08-12T03:45:04.465Z,100664.67
2018-08-12T03:48:02.476Z,100660.37
2018-08-12T03:51:00.586Z,100664.39
2018-08-12T03:53:58.657Z,100661.45
2018-08-12T03:56:56.828Z,100661.69
2018-08-12T03:59:54.608Z,100661.69
2018-08-12T04:02:53.591Z,100652.50
2018-08-12T04:05:51.772Z,100646.76
2018-08-12T04:08:49.638Z,100641.02
2018-08-12T04:11:47.513Z,100636.25
2018-08-12T04:14:45.552Z,100636.63
2018-08-12T04:17:43.506Z,100637.45
2018-08-12T04:20:41.280Z,100636.87
2018-08-12T04:23:39.228Z,100640.33
2018-08-12T04:26:37.383Z,100635.06
2018-08-12T04:29:34.651Z,100629.28
2018-08-12T04:32:32.108Z,100628.70
2018-08-12T04:35:29.567Z,100626.30
2018-08-12T04:38:26.726Z,100631.17
2018-08-12T04:41:24.175Z,100623.80
2018-08-12T04:44:21.486Z,100627.52
2018-08-12T04:47:19.404Z,100619.79
2018-08-12T04:50:17.268Z,100618.51
2018-08-12T04:53:15.263Z,100620.62
2018-08-12T04:56:13.147Z,100613.02
2018-08-12T04:59:10.881Z,100611.44
2018-08-12T05:02:08.419Z,100614.69
2018-08-12T05:05:05.532Z,100606.51
2018-08-12T05:08:03.371Z,100603.78
2018-08-12T05:11:00.460Z,100604.66
2018-08-12T05:13:58.650Z,100593.81
2018-08-12T05:16:56.735Z,100598.98
2018-08-12T05:19:54.039Z,100594.94
2018-08-12T05:22:52.170Z,100583.47
2018-08-12T05:25:50.000Z,100580.31
2018-08-12T05:28:47.044Z,100569.39
2018-08-12T05:31:44.251Z,100558.34
2018-08-12T05:34:41.975Z,100563.08
2018-08-12T05:37:39.757Z,100545.31
2018-08-12T05:40:37.211Z,100549.17
2018-08-12T05:43:34.951Z,100539.00
2018-08-12T05:46:32.555Z,100536.37
2018-08-12T05:49:30.011Z,100536.16
2018-08-12T05:52:27.383Z,100549.42
2018-08-12T05:55:24.596Z,100549.33
2018-08-12T05:58:21.900Z,100549.56
2018-08-12T06:01:18.949Z,100550.95
2018-08-12T06:04:16.158Z,100556.27
2018-08-12T06:07:13.780Z,100537.78
2018-08-12T06:10:11.007Z,100532.95
2018-08-12T06:13:09.220Z,100535.66
2018-08-12T06:16:07.323Z,100527.52
2018-08-12T06:19:05.072Z,100520.00
2018-08-12T06:22:10.299Z,100513.09
2018-08-12T06:25:08.283Z,100508.88
2018-08-12T06:28:06.269Z,100497.17
2018-08-12T06:31:04.219Z,100503.37
2018-08-12T06:34:01.673Z,100505.67
2018-08-12T06:36:59.770Z,100525.11
2018-08-12T06:39:57.674Z,100528.25
2018-08-12T06:42:54.991Z,100522.42
2018-08-12T06:45:52.888Z,100502.95
2018-08-12T06:48:50.358Z,100496.00
2018-08-12T06:51:47.543Z,100496.92
2018-08-12T06:54:45.239Z,100504.03
2018-08-12T06:57:43.177Z,100487.75
2018-08-12T07:00:40.196Z,100492.47
2018-08-12T07:03:38.111Z,100496.52
2018-08-12T07:06:35.193Z,100496.62
2018-08-12T07:09:33.296Z,100491.67
2018-08-12T07:12:31.361Z,100466.80
2018-08-12T07:15:31.371Z,100460.77
2018-08-12T07:18:29.492Z,100462.88
2018-08-12T07:21:26.831Z,100456.87
2018-08-12T07:24:24.054Z,100446.59
2018-08-12T07:27:21.830Z,100451.45
2018-08-12T07:30:21.019Z,100463.66
2018-08-12T07:33:18.999Z,100458.41
2018-08-12T07:36:16.087Z,100450.59
2018-08-12T07:39:14.064Z,100451.89
2018-08-12T07:42:11.287Z,100444.81
2018-08-12T07:45:09.027Z,100464.32
2018-08-12T07:48:06.830Z,100467.70
2018-08-12T07:51:04.219Z,100471.62
2018-08-12T07:54:02.060Z,100464.94
2018-08-12T07:57:00.104Z,100456.06
2018-08-12T07:59:57.934Z,100448.05
2018-08-12T08:02:55.309Z,100437.78
2018-08-12T08:05:52.933Z,100433.19
2018-08-12T08:08:50.420Z,100428.88
2018-08-12T08:11:49.287Z,100442.89
2018-08-12T08:14:46.768Z,100449.98
2018-08-12T08:17:44.957Z,100444.31
2018-08-12T08:20:42.700Z,100431.03
2018-08-12T08:23:40.692Z,100428.17
2018-08-12T08:26:38.053Z,100428.52
2018-08-12T08:29:35.899Z,100429.39
2018-08-12T08:32:33.913Z,100427.83
2018-08-12T08:35:31.863Z,100416.48
2018-08-12T08:38:29.900Z,100432.73
2018-08-12T08:41:27.921Z,100429.89
2018-08-12T08:44:25.924Z,100437.81
2018-08-12T08:47:24.048Z,100442.22
2018-08-12T08:50:21.981Z,100458.84
2018-08-12T08:53:19.900Z,100444.06
2018-08-12T08:56:18.183Z,100432.64
2018-08-12T08:59:16.160Z,100416.53
2018-08-12T09:02:14.090Z,100413.96
2018-08-12T09:05:11.956Z,100417.80
2018-08-12T09:08:09.988Z,100405.23
2018-08-12T09:11:07.854Z,100424.86
2018-08-12T09:14:05.003Z,100414.81
2018-08-12T09:17:09.527Z,100411.95
2018-08-12T09:20:07.140Z,100404.34
2018-08-12T09:23:04.852Z,100391.91
2018-08-12T09:26:02.723Z,100387.38
2018-08-12T09:28:59.997Z,100394.53
2018-08-12T09:31:57.736Z,100390.48
2018-08-12T09:34:55.845Z,100396.24
2018-08-12T09:37:53.955Z,100396.95
2018-08-12T09:40:51.875Z,100382.91
2018-08-12T09:43:49.940Z,100374.82
2018-08-12T09:46:47.842Z,100372.59
2018-08-12T09:49:45.996Z,100363.81
2018-08-12T09:52:43.880Z,100371.14
2018-08-12T09:55:40.904Z,100374.20
2018-08-12T09:58:37.983Z,100372.84
2018-08-12T10:01:35.707Z,100372.20
2018-08-12T10:04:32.803Z,100371.12
2018-08-12T10:07:31.168Z,100384.73
2018-08-12T10:10:29.174Z,100383.73
2018-08-12T10:13:26.547Z,100367.58
2018-08-12T10:16:23.684Z,100363.77
2018-08-12T10:19:21.039Z,100358.92
2018-08-12T10:22:19.143Z,100354.22
2018-08-12T10:25:17.248Z,100348.57
2018-08-12T10:28:15.176Z,100352.86
2018-08-12T10:31:13.299Z,100337.47
2018-08-12T10:34:10.535Z,100334.95
2018-08-12T10:37:07.891Z,100338.25
2018-08-12T10:40:05.450Z,100327.17
2018-08-12T10:43:03.354Z,100330.45
2018-08-12T10:46:02.384Z,100319.88
2018-08-12T10:48:59.568Z,100326.92
2018-08-12T10:51:57.028Z,100328.00
2018-08-12T10:54:55.080Z,100306.05
2018-08-12T10:57:52.994Z,100288.34
2018-08-12T11:00:58.398Z,100288.91
2018-08-12T11:03:56.487Z,100283.05
2018-08-12T11:06:56.299Z,100278.55
2018-08-12T11:09:54.390Z,100271.11
2018-08-12T11:12:51.576Z,100274.13
2018-08-12T11:15:49.200Z,100270.55
2018-08-12T11:18:47.201Z,100274.17
2018-08-12T11:21:45.228Z,100263.02
2018-08-12T11:24:42.739Z,100255.39
2018-08-12T11:27:40.043Z,100250.48
2018-08-12T11:30:37.838Z,100245.36
2018-08-12T11:33:36.127Z,100249.93
2018-08-12T11:36:33.446Z,100242.81
2018-08-12T11:39:30.799Z,100263.26
2018-08-12T11:42:29.721Z,100268.01
2018-08-12T11:45:29.893Z,100268.72
2018-08-12T11:48:35.936Z,100271.13
2018-08-12T11:51:33.282Z,100275.56
2018-08-12T11:54:31.450Z,100271.09
2018-08-12T11:57:29.232Z,100263.22
2018-08-12T12:00:30.313Z,100256.37
2018-08-12T12:03:28.077Z,100261.08
2018-08-12T12:06:26.151Z,100264.23
2018-08-12T12:09:23.959Z,100250.37
2018-08-12T12:12:21.918Z,100246.44
2018-08-12T12:15:20.619Z,100245.28
2018-08-12T12:18:17.859Z,100241.14
2018-08-12T12:21:16.081Z,100229.44
2018-08-12T12:24:13.327Z,100237.59
2018-08-12T12:27:11.355Z,100223.86
2018-08-12T12:30:09.522Z,100224.77
2018-08-12T12:33:07.468Z,100215.81
2018-08-12T12:36:05.585Z,100211.91
2018-08-12T12:39:02.785Z,100203.41
2018-08-12T12:42:00.520Z,100195.72
2018-08-12T12:44:58.476Z,100193.74
2018-08-12T12:47:56.218Z,100193.48
2018-08-12T12:50:54.208Z,100190.59
2018-08-12T12:53:52.282Z,100186.30
2018-08-12T12:56:50.093Z,100175.45
2018-08-12T12:59:48.043Z,100176.53
2018-08-12T13:02:46.101Z,100170.11
2018-08-12T13:05:44.087Z,100167.31
2018-08-12T13:08:42.163Z,100163.56
2018-08-12T13:11:39.987Z,100162.95
2018-08-12T13:14:38.020Z,100148.92
2018-08-12T13:17:35.374Z,100152.32
2018-08-12T13:20:33.943Z,100148.28
2018-08-12T13:23:31.188Z,100138.87
2018-08-12T13:26:28.585Z,100137.47
2018-08-12T13:29:26.730Z,100130.19
2018-08-12T13:32:24.500Z,100130.98
2018-08-12T13:35:21.676Z,100120.80
2018-08-12T13:38:18.812Z,100124.59
2018-08-12T13:41:16.881Z,100119.44
2018-08-12T13:44:14.880Z,100112.48
2018-08-12T13:47:13.029Z,100107.27
2018-08-12T13:50:11.121Z,100110.44
2018-08-12T13:53:09.145Z,100105.26
2018-08-12T13:56:06.351Z,100106.45
2018-08-12T13:59:03.507Z,100099.62
2018-08-12T14:02:01.010Z,100090.30
2018-08-12T14:04:58.523Z,100079.27
2018-08-12T14:08:04.663Z,100079.94
2018-08-12T14:11:01.932Z,100068.62
2018-08-12T14:13:59.267Z,100064.02
2018-08-12T14:16:56.530Z,100070.28
2018-08-12T14:19:53.735Z,100061.14
2018-08-12T14:22:51.607Z,100059.97
2018-08-12T14:25:49.206Z,100052.38
2018-08-12T14:28:47.034Z,100056.69
2018-08-12T14:31:44.959Z,100046.77
2018-08-12T14:34:42.681Z,100039.58
2018-08-12T14:37:40.505Z,100035.91
2018-08-12T14:40:38.353Z,100027.49
2018-08-12T14:43:36.393Z,100033.13
2018-08-12T14:46:34.119Z,100020.92
2018-08-12T14:49:32.072Z,100023.54
2018-08-12T14:52:29.206Z,100015.20
2018-08-12T14:55:28.204Z,100014.02
2018-08-12T14:58:26.259Z,100012.97
2018-08-12T15:01:24.307Z,100002.20
2018-08-12T15:04:23.220Z,99998.30
2018-08-12T15:07:21.386Z,99993.62
2018-08-12T15:10:26.531Z,99991.88
2018-08-12T15:13:24.455Z,99991.03
2018-08-12T15:16:21.671Z,99972.84
2018-08-12T15:19:19.813Z,99969.25
2018-08-12T15:22:17.308Z,99964.97
2018-08-12T15:25:16.025Z,99962.48
2018-08-12T15:28:14.022Z,99949.67
2018-08-12T15:31:11.725Z,99956.05
2018-08-12T15:34:09.320Z,99959.41
2018-08-12T15:37:06.669Z,99947.20
2018-08-12T15:40:04.751Z,99932.89
2018-08-12T15:43:02.736Z,99936.82
2018-08-12T15:46:00.108Z,99929.20
2018-08-12T15:48:58.173Z,99923.45
2018-08-12T15:51:56.251Z,99923.49
2018-08-12T15:54:53.659Z,99926.39
2018-08-12T15:57:51.422Z,99918.60
2018-08-12T16:00:48.394Z,99912.92
2018-08-12T16:03:46.320Z,99913.08
2018-08-12T16:06:43.509Z,99903.58
2018-08-12T16:09:41.552Z,99887.76
2018-08-12T16:12:39.248Z,99904.72
2018-08-12T16:15:36.653Z,99898.23
2018-08-12T16:18:34.651Z,99905.71
2018-08-12T16:21:32.741Z,99898.14
2018-08-12T16:24:29.893Z,99906.51
2018-08-12T16:27:27.364Z,99898.28
2018-08-12T16:30:26.231Z,99907.68
2018-08-12T16:33:23.345Z,99902.47
2018-08-12T16:36:20.982Z,99898.69
2018-08-12T16:39:20.359Z,99890.45
2018-08-12T16:42:17.870Z,99879.89
2018-08-12T16:45:15.188Z,99881.77
2018-08-12T16:48:12.663Z,99881.81
2018-08-12T16:51:09.995Z,99877.05
2018-08-12T16:54:08.103Z,99868.23
2018-08-12T16:57:05.147Z,99865.35
2018-08-12T17:00:03.225Z,99857.13
2018-08-12T17:03:00.603Z,99851.68
2018-08-12T17:05:58.676Z,99847.95
2018-08-12T17:08:56.828Z,99854.84
2018-08-12T17:11:54.452Z,99860.72
2018-08-12T17:14:52.441Z,99852.80
2018-08-12T17:17:50.474Z,99849.89
2018-08-12T17:20:47.491Z,99842.81
2018-08-12T17:23:45.696Z,99855.16
2018-08-12T17:26:43.650Z,99865.53
2018-08-12T17:29:41.839Z,99853.47
2018-08-12T17:32:39.489Z,99852.33
2018-08-12T17:35:36.740Z,99871.44
2018-08-12T17:38:34.508Z,99879.75
2018-08-12T17:41:31.982Z,99878.34
2018-08-12T17:44:29.852Z,99874.91
2018-08-12T17:47:27.260Z,99870.84
2018-08-12T17:50:24.970Z,99867.61
2018-08-12T17:53:22.297Z,99868.12
2018-08-12T17:56:19.504Z,99871.12
2018-08-12T17:59:17.415Z,99866.56
2018-08-12T18:02:14.408Z,99860.19
2018-08-12T18:05:12.274Z,99857.38
2018-08-12T18:08:10.211Z,99853.84
2018-08-12T18:11:08.408Z,99855.85
2018-08-12T18:14:06.335Z,99859.41
2018-08-12T18:17:04.399Z,99859.53
2018-08-12T18:20:02.123Z,99857.93
2018-08-12T18:22:59.968Z,99854.79
2018-08-12T18:25:57.911Z,99865.70
2018-08-12T18:28:56.005Z,99853.63
2018-08-12T18:31:53.298Z,99854.25
2018-08-12T18:34:51.096Z,99847.17
2018-08-12T18:37:49.212Z,99852.98
2018-08-12T18:40:46.438Z,99834.98
2018-08-12T18:43:44.419Z,99840.72
2018-08-12T18:46:41.644Z,99843.32
2018-08-12T18:49:38.796Z,99834.77
2018-08-12T18:52:36.061Z,99841.80
2018-08-12T18:55:33.923Z,99839.81
2018-08-12T18:58:31.133Z,99837.98
2018-08-12T19:01:28.772Z,99838.41
2018-08-12T19:04:26.103Z,99834.41
2018-08-12T19:07:23.277Z,99838.53
2018-08-12T19:10:21.934Z,99833.70
2018-08-12T19:13:19.003Z,99829.79
2018-08-12T19:16:16.803Z,99834.98
2018-08-12T19:19:14.875Z,99826.75
2018-08-12T19:22:12.895Z,99840.91
2018-08-12T19:25:10.846Z,99840.56
2018-08-12T19:28:08.122Z,99832.84
2018-08-12T19:31:05.098Z,99832.22
2018-08-12T19:34:02.494Z,99835.54
2018-08-12T19:37:00.302Z,99825.37
2018-08-12T19:39:58.326Z,99830.20
2018-08-12T19:42:55.579Z,99832.57
2018-08-12T19:45:52.771Z,99826.59
2018-08-12T19:48:50.807Z,99827.19
2018-08-12T19:51:47.853Z,99825.72
2018-08-12T19:54:45.292Z,99821.84
2018-08-12T19:57:43.323Z,99820.39
2018-08-12T20:00:40.875Z,99818.95
2018-08-12T20:03:40.291Z,99815.17
2018-08-12T20:06:38.327Z,99817.72
2018-08-12T20:09:35.803Z,99817.44
2018-08-12T20:12:33.869Z,99804.69
2018-08-12T20:15:32.910Z,99815.57
2018-08-12T20:18:30.644Z,99812.95
2018-08-12T20:21:28.647Z,99813.99
2018-08-12T20:24:26.838Z,99814.15
2018-08-12T20:27:24.819Z,99803.94
2018-08-12T20:30:24.196Z,99810.45
2018-08-12T20:33:22.775Z,99799.78
2018-08-12T20:36:20.435Z,99798.51
2018-08-12T20:39:20.436Z,99790.55
2018-08-12T20:42:18.872Z,99794.70
2018-08-12T20:45:16.116Z,99793.52
2018-08-12T20:48:14.225Z,99793.70
2018-08-12T20:51:11.658Z,99797.86
2018-08-12T20:54:09.553Z,99793.34
2018-08-12T20:57:06.923Z,99801.36
2018-08-12T21:00:04.961Z,99789.58
2018-08-12T21:03:03.338Z,99793.17
2018-08-12T21:06:00.823Z,99787.04
2018-08-12T21:08:59.177Z,99780.25
2018-08-12T21:11:56.416Z,99775.91
2018-08-12T21:14:53.303Z,99783.45
2018-08-12T21:17:50.581Z,99774.64
2018-08-12T21:20:48.079Z,99774.26
2018-08-12T21:23:46.120Z,99777.25
2018-08-12T21:26:43.655Z,99773.19
2018-08-12T21:29:40.817Z,99770.72
2018-08-12T21:32:38.204Z,99762.77
2018-08-12T21:35:35.359Z,99770.08
2018-08-12T21:38:32.613Z,99769.11
2018-08-12T21:41:30.778Z,99766.89
2018-08-12T21:44:28.778Z,99766.45
2018-08-12T21:47:26.727Z,99764.27
2018-08-12T21:50:24.764Z,99753.91
2018-08-12T21:53:22.539Z,99762.89
2018-08-12T21:56:20.323Z,99756.31
2018-08-12T21:59:17.518Z,99754.61
2018-08-12T22:02:15.497Z,99745.95
2018-08-12T22:05:12.640Z,99752.73
2018-08-12T22:08:14.755Z,99745.90
2018-08-12T22:11:12.056Z,99747.80
2018-08-12T22:14:09.811Z,99742.27
2018-08-12T22:17:07.719Z,99744.92
2018-08-12T22:20:05.086Z,99737.41
2018-08-12T22:23:02.122Z,99736.48
2018-08-12T22:26:00.015Z,99741.11
2018-08-12T22:28:57.928Z,99737.81
2018-08-12T22:31:55.344Z,99732.63
2018-08-12T22:34:53.153Z,99731.36
2018-08-12T22:37:50.980Z,99733.87
2018-08-12T22:40:48.565Z,99728.11
2018-08-12T22:43:46.193Z,99723.61
2018-08-12T22:46:43.346Z,99724.73
2018-08-12T22:49:41.283Z,99729.13
2018-08-12T22:52:39.285Z,99725.22
2018-08-12T22:55:36.529Z,99725.22
2018-08-12T22:58:33.797Z,99726.28
2018-08-12T23:01:31.443Z,99730.62
2018-08-12T23:04:29.267Z,99723.53
2018-08-12T23:07:27.200Z,99723.23
2018-08-12T23:10:25.119Z,99717.09
2018-08-12T23:13:22.352Z,99719.42
2018-08-12T23:16:33.498Z,99715.64
2018-08-12T23:19:31.615Z,99716.35
2018-08-12T23:22:29.648Z,99711.68
2018-08-12T23:25:26.730Z,99710.90
2018-08-12T23:28:24.154Z,99702.48
2018-08-12T23:31:22.027Z,99701.16
2018-08-12T23:34:20.067Z,99702.79
2018-08-12T23:37:25.310Z,99688.22
2018-08-12T23:40:23.331Z,99690.56
2018-08-12T23:43:20.613Z,99686.00
2018-08-12T23:46:18.075Z,99680.86
2018-08-12T23:49:15.328Z,99675.21
2018-08-12T23:52:12.593Z,99674.23
2018-08-12T23:55:10.336Z,99667.15
2018-08-12T23:58:08.356Z,99669.64
